• Join FlightAware (Why Join?)
  • Login
  • US Flag 
12:14PM EDT


 

Airport Tracker/Info


-or-


 

Live Flight TrackerFlight Track Log ✈ SLI2072 ✈ 28-Jun-2013 ✈ MMMX / MEX - MMLP / LAP

Flight Track Log - Related Links

Times and Time Zones

All times are in EDT time to prevent confusion due to time zone crossing. See the SLI2072 flight status page for this flight to view local times or setup timezone preferences in your user account.

Time Position Orientation Groundspeed Altitude Reporting Facility
EDT Latitude Longitude Course Direction KTS MPH feet Rate Location/Type
05:28PM 20.0148 -100.3511 296° West  Level Estimated
05:29PM 20.0626 -100.4581 295° West  Level Estimated
05:30PM 20.1103 -100.5652 295° West  Level Estimated
05:31PM 20.1579 -100.6723 295° West  Level Estimated
05:32PM 20.2055 -100.7795 295° West  Level Estimated
05:33PM 20.2531 -100.8868 295° West  Level Estimated
05:34PM 20.3006 -100.9941 295° West  Level Estimated
05:35PM 20.3479 -101.1015 295° West  Level Estimated
05:36PM 20.3953 -101.2090 295° West  Level Estimated
05:37PM 20.4426 -101.3165 295° West  Level Estimated
05:38PM 20.4898 -101.4241 295° West  Level Estimated
05:39PM 20.5369 -101.5318 295° West  Level Estimated
05:40PM 20.5840 -101.6395 295° West  Level Estimated
05:41PM 20.6310 -101.7473 295° West  Level Estimated
05:42PM 20.6779 -101.8552 295° West  Level Estimated
05:43PM 20.7248 -101.9631 295° West  Level Estimated
05:44PM 20.7716 -102.0711 295° West  Level Estimated
05:45PM 20.8183 -102.1792 295° West  Level Estimated
05:46PM 20.8650 -102.2873 295° West  Level Estimated
05:47PM 20.9116 -102.3955 295° West  Level Estimated
05:48PM 20.9581 -102.5038 295° West  Level Estimated
05:49PM 21.0046 -102.6121 295° West  Level Estimated
05:50PM 21.0510 -102.7205 295° West  Level Estimated
05:51PM 21.0973 -102.8290 295° West  Level Estimated
05:52PM 21.1436 -102.9375 295° West  Level Estimated
05:53PM 21.1898 -103.0461 295° West  Level Estimated
05:54PM 21.2359 -103.1548 294° West  Level Estimated
05:55PM 21.2820 -103.2635 294° West  Level Estimated
05:56PM 21.3279 -103.3723 294° West  Level Estimated
05:57PM 21.3738 -103.4812 294° West  Level Estimated
05:58PM 21.4197 -103.5901 294° West  Level Estimated
05:59PM 21.4655 -103.6991 294° West  Level Estimated
06:00PM 21.5112 -103.8082 294° West  Level Estimated
06:01PM 21.5568 -103.9174 294° West  Level Estimated
06:02PM 21.6024 -104.0266 294° West  Level Estimated
06:03PM 21.6478 -104.1358 294° West  Level Estimated
06:04PM 21.6933 -104.2452 294° West  Level Estimated
06:05PM 21.7386 -104.3546 294° West  Level Estimated
06:06PM 21.7839 -104.4641 294° West  Level Estimated
06:07PM 21.8291 -104.5737 294° West  Level Estimated
06:08PM 21.8742 -104.6833 294° West  Level Estimated
06:09PM 21.9192 -104.7930 294° West  Level Estimated
06:10PM 21.9642 -104.9028 294° West  Level Estimated
06:11PM 22.0091 -105.0126 294° West  Level Estimated
06:12PM 22.0540 -105.1225 294° West  Level Estimated
06:13PM 22.0987 -105.2325 294° West  Level Estimated
06:14PM 22.1434 -105.3426 294° West  Level Estimated
06:15PM 22.1880 -105.4527 294° West  Level Estimated
06:16PM 22.2326 -105.5629 294° West  Level Estimated
06:17PM 22.2770 -105.6731 294° West  Level Estimated
06:18PM 22.3214 -105.7834 294° West  Level Estimated
06:19PM 22.3657 -105.8939 293° West  Level Estimated
06:20PM 22.4100 -106.0043 293° West  Level Estimated
06:21PM 22.4541 -106.1149 293° West  Level Estimated
06:22PM 22.4982 -106.2255 293° West  Level Estimated
06:23PM 22.5423 -106.3362 293° West  Level Estimated
06:24PM 22.5862 -106.4469 293° West  Level Estimated
06:25PM 22.6301 -106.5577 293° West  Level Estimated
06:26PM 22.6738 -106.6686 293° West  Level Estimated
06:27PM 22.7176 -106.7796 293° West  Level Estimated
06:28PM 22.7612 -106.8906 293° West  Level Estimated
06:29PM 22.8048 -107.0017 293° West  Level Estimated
06:30PM 22.8482 -107.1129 293° West  Level Estimated
06:31PM 22.8916 -107.2241 293° West  Level Estimated
06:32PM 22.9350 -107.3354 293° West  Level Estimated
06:33PM 22.9782 -107.4468 293° West  Level Estimated
06:34PM 23.0214 -107.5583 293° West  Level Estimated
06:35PM 23.0645 -107.6698 293° West  Level Estimated
06:36PM 23.1075 -107.7814 293° West  Level Estimated
06:37PM 23.1504 -107.8931 293° West  Level Estimated
06:38PM 23.1933 -108.0048 293° West  Level Estimated
06:39PM 23.2361 -108.1166 293° West  Level Estimated
06:40PM 23.2788 -108.2285 293° West  Level Estimated
06:41PM 23.3214 -108.3405 293° West  Level Estimated
06:42PM 23.3639 -108.4525 292° West  Level Estimated
06:43PM 23.4064 -108.5646 292° West  Level Estimated
06:44PM 23.4488 -108.6768 292° West  Level Estimated
06:45PM 23.4911 -108.7890 292° West  Level Estimated
06:46PM 23.5333 -108.9014 292° West  Level Estimated
06:47PM 23.5754 -109.0137 292° West  Level Estimated
06:48PM 23.6175 -109.1262 292° West  Level Estimated
06:49PM 23.6595 -109.2387 292° West  Level Estimated
06:50PM 23.7014 -109.3513 292° West  Level Estimated
06:51PM 23.7432 -109.4640 292° West  Level Estimated
06:52PM 23.7849 -109.5768 292° West  Level Estimated
06:53PM 23.8265 -109.6896 292° West  Level Estimated
06:54PM 23.8681 -109.8025 292° West  Level Estimated
06:55PM 23.9096 -109.9155 292° West  Level Estimated
06:56PM 23.9510 -110.0285 292° West  Level Estimated
06:57PM 23.9923 -110.1416 292° West  Level Estimated
06:58PM 24.0336 -110.2548 292° West  Level Estimated
06:59PM 24.0727 -110.3625 292° West  Level Estimated
07:00PM 24.0727 -110.3625 49° Northeast  Level Estimated
07:01PM 24.0727 -110.3625 49° Northeast  Level Estimated
07:02PM 24.0727 -110.3625 49° Northeast  Level Estimated
07:03PM 24.0727 -110.3625 49° Northeast  Level Estimated
07:04PM 24.0727 -110.3625 49° Northeast  Level Estimated
07:05PM 24.0727 -110.3625 49° Northeast  Level Estimated
07:06PM 24.0727 -110.3625 49° Northeast  Level Estimated
07:07PM 24.0727 -110.3625 49° Northeast  Level Estimated
07:08PM 24.0727 -110.3625 49° Northeast  Level Estimated
07:09PM 24.0727 -110.3625 49° Northeast  Level Estimated
07:10PM 24.0727 -110.3625 49° Northeast  Level Estimated
07:11PM 24.0727 -110.3625 49° Northeast  Level Estimated
07:12PM 24.0727 -110.3625 49° Northeast  Level Estimated
07:13PM 24.0727 -110.3625 49° Northeast  Level Estimated
07:14PM 24.0727 -110.3625 49° Northeast  Level Estimated
07:15PM 24.0727 -110.3625 49° Northeast  Level Estimated